createdAt,value
2019-04-16T00:03:00.633Z,0.80
2019-04-16T00:07:43.214Z,1.10
2019-04-16T00:12:46.816Z,1.27
2019-04-16T00:17:22.594Z,0.80
2019-04-16T00:22:29.261Z,0.72
2019-04-16T00:27:05.153Z,0.90
2019-04-16T00:31:41.228Z,1.17
2019-04-16T00:36:18.114Z,0.95
2019-04-16T00:40:54.525Z,1.10
2019-04-16T00:45:30.269Z,1.10
2019-04-16T00:50:06.529Z,0.80
2019-04-16T00:54:43.206Z,0.90
2019-04-16T00:59:21.298Z,1.37
2019-04-16T01:03:56.480Z,0.90
2019-04-16T01:08:32.257Z,1.17
2019-04-16T01:13:08.021Z,1.40
2019-04-16T01:17:43.789Z,1.05
2019-04-16T01:22:19.544Z,1.00
2019-04-16T01:26:57.768Z,0.82
2019-04-16T01:31:53.224Z,1.65
2019-04-16T01:36:47.200Z,1.27
2019-04-16T01:41:22.960Z,1.12
2019-04-16T01:46:01.456Z,1.27
2019-04-16T01:50:36.181Z,0.90
2019-04-16T01:55:11.952Z,1.10
2019-04-16T01:59:47.699Z,1.35
2019-04-16T02:04:23.489Z,1.25
2019-04-16T02:09:02.787Z,1.32
2019-04-16T02:13:36.745Z,1.12
2019-04-16T02:18:12.514Z,1.65
2019-04-16T02:22:48.303Z,1.10
2019-04-16T02:27:26.265Z,2.35
2019-04-16T02:32:01.937Z,1.70
2019-04-16T02:36:37.773Z,1.75
2019-04-16T02:41:16.365Z,1.72
2019-04-16T02:45:56.770Z,1.40
2019-04-16T02:50:51.420Z,1.65
2019-04-16T02:56:01.479Z,1.27
2019-04-16T03:00:54.970Z,1.37
2019-04-16T03:05:42.502Z,1.25
2019-04-16T03:10:18.274Z,1.00
2019-04-16T03:14:54.089Z,1.35
2019-04-16T03:19:34.641Z,1.20
2019-04-16T03:24:10.416Z,1.20
2019-04-16T03:28:46.241Z,1.20
2019-04-16T03:33:22.053Z,2.75
2019-04-16T03:37:57.818Z,2.95
2019-04-16T03:42:33.661Z,1.47
2019-04-16T03:47:09.413Z,1.92
2019-04-16T03:51:45.209Z,1.17
2019-04-16T03:56:20.961Z,1.10
2019-04-16T04:00:56.737Z,1.15
2019-04-16T04:05:34.946Z,1.07
2019-04-16T04:10:10.404Z,1.25
2019-04-16T04:14:46.184Z,1.22
2019-04-16T04:19:21.959Z,1.12
2019-04-16T04:24:00.648Z,1.00
2019-04-16T04:28:35.409Z,1.47
2019-04-16T04:33:13.013Z,1.35
2019-04-16T04:37:48.848Z,1.20
2019-04-16T04:42:25.601Z,1.67
2019-04-16T04:47:02.045Z,1.40
2019-04-16T04:51:42.664Z,1.67
2019-04-16T04:56:15.262Z,1.95
2019-04-16T05:00:51.004Z,1.37
2019-04-16T05:05:47.097Z,1.10
2019-04-16T05:10:22.836Z,1.47
2019-04-16T05:14:58.928Z,1.72
2019-04-16T05:19:34.742Z,2.08
2019-04-16T05:24:10.507Z,1.07
2019-04-16T05:28:46.266Z,1.25
2019-04-16T05:33:22.092Z,1.87
2019-04-16T05:37:57.867Z,1.50
2019-04-16T05:42:33.675Z,1.55
2019-04-16T05:47:09.421Z,2.87
2019-04-16T05:51:45.196Z,3.10
2019-04-16T06:01:25.926Z,2.02
2019-04-16T06:06:01.677Z,2.92
2019-04-16T06:10:37.437Z,1.57
2019-04-16T06:15:27.049Z,3.02
2019-04-16T06:20:39.681Z,1.42
2019-04-16T06:25:31.768Z,1.50
2019-04-16T06:30:25.307Z,1.67
2019-04-16T06:35:20.264Z,1.72
2019-04-16T06:40:15.170Z,2.05
2019-04-16T06:44:55.843Z,4.50
2019-04-16T06:49:53.484Z,1.85
2019-04-16T06:54:48.181Z,4.00
2019-04-16T06:59:30.454Z,2.87
2019-04-16T07:04:29.516Z,2.10
2019-04-16T07:09:24.591Z,2.00
2019-04-16T07:13:57.989Z,1.30
2019-04-16T07:18:35.535Z,1.92
2019-04-16T07:23:11.214Z,2.55
2019-04-16T07:28:05.913Z,1.30
2019-04-16T07:32:53.684Z,1.12
2019-04-16T07:37:42.253Z,1.15
2019-04-16T07:42:51.856Z,1.82
2019-04-16T07:47:33.880Z,1.50
2019-04-16T07:52:46.833Z,2.12
2019-04-16T07:57:22.600Z,0.85
2019-04-16T08:01:58.398Z,1.32
2019-04-16T08:06:34.160Z,1.62
2019-04-16T08:11:09.933Z,1.37
2019-04-16T08:15:45.690Z,1.42
2019-04-16T08:20:21.474Z,1.12
2019-04-16T08:25:02.990Z,1.10
2019-04-16T08:29:37.186Z,1.12
2019-04-16T08:34:13.022Z,1.50
2019-04-16T08:38:48.797Z,1.32
2019-04-16T08:43:26.641Z,1.30
2019-04-16T08:48:02.197Z,2.70
2019-04-16T08:52:38.606Z,1.45
2019-04-16T08:57:15.532Z,0.98
2019-04-16T09:01:53.983Z,0.90
2019-04-16T09:06:28.807Z,0.82
2019-04-16T09:11:04.911Z,1.10
2019-04-16T09:15:40.749Z,1.20
2019-04-16T09:20:25.603Z,1.17
2019-04-16T09:25:13.891Z,1.35
2019-04-16T09:29:54.440Z,2.47
2019-04-16T09:34:49.127Z,0.80
2019-04-16T09:44:21.560Z,1.50
2019-04-16T09:48:57.326Z,1.17
2019-04-16T09:53:34.616Z,3.25
2019-04-16T09:58:17.234Z,2.72
2019-04-16T10:02:55.157Z,5.22
2019-04-16T10:07:30.656Z,1.32
2019-04-16T10:12:07.902Z,1.50
2019-04-16T10:16:43.899Z,1.50
2019-04-16T10:21:20.322Z,2.30
2019-04-16T10:25:56.232Z,3.05
2019-04-16T10:30:33.423Z,4.45
2019-04-16T10:35:09.244Z,2.80
2019-04-16T10:40:05.042Z,3.77
2019-04-16T10:44:58.712Z,3.17
2019-04-16T10:49:56.428Z,3.37
2019-04-16T10:54:51.204Z,3.05
2019-04-16T10:59:43.042Z,4.42
2019-04-16T11:04:43.362Z,3.27
2019-04-16T11:09:18.456Z,2.52
2019-04-16T11:14:00.164Z,4.28
2019-04-16T11:18:31.802Z,3.27
2019-04-16T11:23:08.138Z,3.05
2019-04-16T11:27:44.074Z,3.60
2019-04-16T11:32:22.286Z,2.92
2019-04-16T11:36:58.503Z,4.55
2019-04-16T11:46:09.664Z,3.20
2019-04-16T11:50:45.490Z,4.75
2019-04-16T11:55:21.335Z,3.35
2019-04-16T12:00:06.553Z,3.83
2019-04-16T12:04:43.901Z,4.30
2019-04-16T12:09:41.712Z,4.72
2019-04-16T12:14:32.245Z,4.35
2019-04-16T12:19:19.222Z,2.25
2019-04-16T12:24:18.655Z,2.62
2019-04-16T12:29:31.785Z,4.10
2019-04-16T12:34:14.077Z,4.25
2019-04-16T12:39:10.711Z,6.00
2019-04-16T12:43:55.016Z,6.05
2019-04-16T12:48:43.518Z,5.45
2019-04-16T12:53:36.288Z,5.62
2019-04-16T12:58:25.488Z,6.25
2019-04-16T13:03:18.704Z,7.33
2019-04-16T13:08:32.701Z,6.03
2019-04-16T13:13:22.036Z,7.90
2019-04-16T13:18:01.917Z,7.55
2019-04-16T13:22:41.734Z,6.95
2019-04-16T13:27:20.153Z,7.10
2019-04-16T13:31:55.932Z,7.42
2019-04-16T13:36:31.715Z,8.63
2019-04-16T13:41:07.594Z,8.45
2019-04-16T13:45:43.389Z,8.58
2019-04-16T13:50:26.092Z,6.87
2019-04-16T13:55:13.785Z,8.85
2019-04-16T14:00:13.841Z,7.87
2019-04-16T14:04:49.605Z,7.65
2019-04-16T14:09:25.382Z,8.33
2019-04-16T14:14:01.145Z,7.70
2019-04-16T14:18:36.931Z,7.08
2019-04-16T14:23:12.684Z,9.70
2019-04-16T14:27:48.478Z,8.88
2019-04-16T14:32:25.268Z,9.50
2019-04-16T14:37:01.359Z,8.63
2019-04-16T14:41:37.192Z,8.53
2019-04-16T14:46:12.994Z,8.60
2019-04-16T14:50:48.780Z,9.08
2019-04-16T14:55:34.431Z,9.75
2019-04-16T15:00:27.779Z,9.20
2019-04-16T15:05:07.993Z,9.30
2019-04-16T15:10:17.699Z,10.53
2019-04-16T15:14:57.710Z,9.95
2019-04-16T15:19:51.253Z,10.48
2019-04-16T15:24:39.757Z,9.88
2019-04-16T15:29:34.485Z,10.58
2019-04-16T15:34:19.452Z,9.98
2019-04-16T15:39:13.189Z,9.98
2019-04-16T15:44:06.275Z,10.40
2019-04-16T15:48:59.716Z,10.30
2019-04-16T15:53:50.525Z,9.73
2019-04-16T15:58:44.256Z,9.35
2019-04-16T16:03:38.961Z,9.63
2019-04-16T16:08:19.245Z,8.90
2019-04-16T16:12:55.184Z,10.30
2019-04-16T16:17:31.181Z,8.68
2019-04-16T16:22:11.084Z,10.43
2019-04-16T16:26:44.439Z,11.22
2019-04-16T16:31:20.209Z,9.55
2019-04-16T16:35:59.923Z,8.85
2019-04-16T16:40:35.581Z,10.20
2019-04-16T16:45:11.561Z,9.80
2019-04-16T16:49:47.321Z,10.80
2019-04-16T16:54:25.604Z,9.78
2019-04-16T16:59:09.755Z,10.23
2019-04-16T17:04:10.706Z,9.63
2019-04-16T17:08:46.528Z,9.78
2019-04-16T17:13:22.325Z,10.23
2019-04-16T17:17:58.110Z,10.68
2019-04-16T17:22:34.014Z,9.58
2019-04-16T17:27:09.833Z,9.05
2019-04-16T17:31:48.246Z,8.55
2019-04-16T17:36:24.073Z,9.78
2019-04-16T17:41:04.528Z,8.93
2019-04-16T17:45:51.292Z,9.93
2019-04-16T17:50:51.329Z,12.95
2019-04-16T17:55:49.011Z,15.60
2019-04-16T18:00:42.437Z,11.50
2019-04-16T18:05:29.493Z,9.70
2019-04-16T18:10:14.620Z,14.20
2019-04-16T18:15:24.308Z,11.65
2019-04-16T18:20:16.108Z,12.05
2019-04-16T18:24:59.093Z,32.98
2019-04-16T18:29:48.914Z,14.68
2019-04-16T18:34:49.840Z,11.50
2019-04-16T18:39:37.090Z,10.88
2019-04-16T18:44:35.491Z,15.88
2019-04-16T18:49:14.274Z,14.05
2019-04-16T18:53:51.428Z,13.00
2019-04-16T18:58:30.375Z,10.75
2019-04-16T19:03:14.576Z,10.68
2019-04-16T19:07:47.680Z,11.20
2019-04-16T19:12:24.681Z,10.50
2019-04-16T19:17:01.527Z,8.25
2019-04-16T19:21:42.396Z,7.30
2019-04-16T19:26:21.645Z,7.70
2019-04-16T19:30:58.748Z,7.22
2019-04-16T19:35:35.224Z,6.75
2019-04-16T19:40:11.676Z,7.40
2019-04-16T19:44:48.080Z,7.65
2019-04-16T19:49:25.017Z,7.70
2019-04-16T19:54:02.700Z,9.30
2019-04-16T19:58:39.143Z,6.42
2019-04-16T20:03:16.630Z,7.12
2019-04-16T20:07:53.219Z,6.15
2019-04-16T20:12:29.314Z,8.13
2019-04-16T20:17:05.419Z,9.63
2019-04-16T20:21:41.241Z,8.85
2019-04-16T20:26:17.102Z,10.90
2019-04-16T20:31:00.448Z,9.55
2019-04-16T20:35:30.378Z,9.80
2019-04-16T20:40:06.172Z,8.85
2019-04-16T20:44:41.957Z,9.40
2019-04-16T20:49:17.792Z,9.38
2019-04-16T20:53:53.608Z,9.38
2019-04-16T20:58:31.485Z,8.50
2019-04-16T21:03:21.594Z,7.53
2019-04-16T21:07:47.207Z,6.97
2019-04-16T21:12:22.964Z,8.25
2019-04-16T21:16:58.774Z,7.50
2019-04-16T21:21:37.933Z,7.25
2019-04-16T21:26:12.049Z,7.08
2019-04-16T21:30:50.166Z,7.42
2019-04-16T21:35:32.777Z,7.80
2019-04-16T21:40:08.949Z,6.30
2019-04-16T21:44:45.446Z,7.40
2019-04-16T21:49:21.284Z,6.87
2019-04-16T21:53:58.559Z,7.22
2019-04-16T21:58:34.600Z,6.47
2019-04-16T22:03:11.561Z,8.08
2019-04-16T22:07:47.353Z,7.25
2019-04-16T22:12:23.213Z,7.25
2019-04-16T22:16:59.945Z,8.05
2019-04-16T22:21:36.513Z,7.83
2019-04-16T22:26:12.359Z,7.83
2019-04-16T22:30:51.240Z,7.10
2019-04-16T22:35:25.616Z,7.90
2019-04-16T22:40:29.165Z,7.25
2019-04-16T22:45:23.081Z,8.45
2019-04-16T22:50:14.054Z,7.53
2019-04-16T22:54:36.332Z,8.05
2019-04-16T22:59:12.109Z,7.70
2019-04-16T23:03:49.759Z,7.70
2019-04-16T23:08:25.341Z,8.20
2019-04-16T23:13:01.588Z,6.95
2019-04-16T23:17:37.842Z,7.70
2019-04-16T23:22:15.275Z,8.40
2019-04-16T23:26:51.265Z,7.90
2019-04-16T23:31:27.060Z,8.20
2019-04-16T23:36:02.822Z,8.28
2019-04-16T23:40:40.685Z,7.45
2019-04-16T23:45:33.560Z,7.33
2019-04-16T23:50:44.734Z,8.18
2019-04-16T23:55:17.503Z,8.53
